createdAt,value
2017-09-08T00:02:11.770Z,4.70
2017-09-08T00:04:37.732Z,5.20
2017-09-08T00:07:03.748Z,5.53
2017-09-08T00:09:29.735Z,4.97
2017-09-08T00:11:55.686Z,5.90
2017-09-08T00:14:21.666Z,5.10
2017-09-08T00:16:47.609Z,4.67
2017-09-08T00:19:13.558Z,4.63
2017-09-08T00:21:39.529Z,5.27
2017-09-08T00:24:05.505Z,4.63
2017-09-08T00:26:31.517Z,6.10
2017-09-08T00:28:57.483Z,4.60
2017-09-08T00:31:24.179Z,5.23
2017-09-08T00:33:50.893Z,4.63
2017-09-08T00:36:16.874Z,4.33
2017-09-08T00:38:42.854Z,4.37
2017-09-08T00:41:09.210Z,5.23
2017-09-08T00:43:35.174Z,4.80
2017-09-08T00:46:01.876Z,4.97
2017-09-08T00:48:27.873Z,4.50
2017-09-08T00:50:53.829Z,4.33
2017-09-08T00:53:19.786Z,5.20
2017-09-08T00:55:45.793Z,4.87
2017-09-08T00:58:11.746Z,5.50
2017-09-08T01:00:37.695Z,5.03
2017-09-08T01:03:03.701Z,4.90
2017-09-08T01:05:29.705Z,5.60
2017-09-08T01:07:55.657Z,5.40
2017-09-08T01:10:21.594Z,4.80
2017-09-08T01:12:47.591Z,5.63
2017-09-08T01:15:13.571Z,5.87
2017-09-08T01:17:39.506Z,4.87
2017-09-08T01:20:06.238Z,4.70
2017-09-08T01:22:32.978Z,4.57
2017-09-08T01:24:58.983Z,4.90
2017-09-08T01:27:24.968Z,4.73
2017-09-08T01:29:51.658Z,4.40
2017-09-08T01:32:17.646Z,5.63
2017-09-08T01:34:43.589Z,6.70
2017-09-08T01:37:09.534Z,5.80
2017-09-08T01:39:36.306Z,5.60
2017-09-08T01:42:02.277Z,4.60
2017-09-08T01:44:28.279Z,4.43
2017-09-08T01:46:54.263Z,5.27
2017-09-08T01:49:20.239Z,5.00
2017-09-08T01:51:46.953Z,5.23
2017-09-08T01:54:12.903Z,5.03
2017-09-08T01:56:38.922Z,4.77
2017-09-08T01:59:04.870Z,5.20
2017-09-08T02:01:30.869Z,4.40
2017-09-08T02:03:56.854Z,3.90
2017-09-08T02:06:22.833Z,4.53
2017-09-08T02:08:48.841Z,4.80
2017-09-08T02:11:14.792Z,4.47
2017-09-08T02:13:40.763Z,5.63
2017-09-08T02:16:06.769Z,4.27
2017-09-08T02:18:32.734Z,5.20
2017-09-08T02:20:58.747Z,4.40
2017-09-08T02:23:25.486Z,5.17
2017-09-08T02:25:52.216Z,4.83
2017-09-08T02:28:18.905Z,4.77
2017-09-08T02:30:51.766Z,4.70
2017-09-08T02:33:17.725Z,4.77
2017-09-08T02:35:43.725Z,4.70
2017-09-08T02:38:10.466Z,5.87
2017-09-08T02:40:36.444Z,4.97
2017-09-08T02:43:03.160Z,5.43
2017-09-08T02:45:29.149Z,5.33
2017-09-08T02:47:55.106Z,4.80
2017-09-08T02:50:21.082Z,5.00
2017-09-08T02:52:47.808Z,4.90
2017-09-08T02:55:13.853Z,4.50
2017-09-08T02:57:39.856Z,6.17
2017-09-08T03:00:06.601Z,4.60
2017-09-08T03:02:32.557Z,5.30
2017-09-08T03:04:58.565Z,4.30
2017-09-08T03:07:24.531Z,5.90
2017-09-08T03:09:50.517Z,4.83
2017-09-08T03:12:16.459Z,4.83
2017-09-08T03:14:42.455Z,4.93
2017-09-08T03:17:08.409Z,4.53
2017-09-08T03:19:34.351Z,4.90
2017-09-08T03:22:00.405Z,5.13
2017-09-08T03:24:26.352Z,5.13
2017-09-08T03:26:53.084Z,5.13
2017-09-08T03:29:19.814Z,5.10
2017-09-08T03:31:45.757Z,5.90
2017-09-08T03:34:11.742Z,5.40
2017-09-08T03:36:37.848Z,5.73
2017-09-08T03:39:03.805Z,5.90
2017-09-08T03:41:29.809Z,5.67
2017-09-08T03:43:55.785Z,6.77
2017-09-08T03:46:21.745Z,5.97
2017-09-08T03:48:47.729Z,6.50
2017-09-08T03:51:13.723Z,6.50
2017-09-08T03:53:39.661Z,6.03
2017-09-08T03:56:05.653Z,6.50
2017-09-08T03:58:31.677Z,6.00
2017-09-08T04:00:57.617Z,5.33
2017-09-08T04:03:24.338Z,5.00
2017-09-08T04:05:51.745Z,6.50
2017-09-08T04:08:17.741Z,5.50
2017-09-08T04:10:43.686Z,5.60
2017-09-08T04:13:09.637Z,6.47
2017-09-08T04:15:35.604Z,5.40
2017-09-08T04:18:01.598Z,5.33
2017-09-08T04:20:27.545Z,5.50
2017-09-08T04:22:54.241Z,6.13
2017-09-08T04:25:20.232Z,4.67
2017-09-08T04:27:46.186Z,5.00
2017-09-08T04:30:12.876Z,5.83
2017-09-08T04:32:38.881Z,5.50
2017-09-08T04:35:04.851Z,5.70
2017-09-08T04:37:31.553Z,5.23
2017-09-08T04:39:57.524Z,6.40
2017-09-08T04:42:23.537Z,5.17
2017-09-08T04:44:49.497Z,5.13
2017-09-08T04:47:16.189Z,5.97
2017-09-08T04:49:42.181Z,5.30
2017-09-08T04:52:08.189Z,5.47
2017-09-08T04:54:34.149Z,5.50
2017-09-08T04:57:00.122Z,5.90
2017-09-08T04:59:26.109Z,6.53
2017-09-08T05:01:52.109Z,4.97
2017-09-08T05:04:18.108Z,6.20
2017-09-08T05:06:44.053Z,5.30
2017-09-08T05:09:09.996Z,6.17
2017-09-08T05:11:35.984Z,5.47
2017-09-08T05:14:01.953Z,5.77
2017-09-08T05:16:27.929Z,6.27
2017-09-08T05:18:53.905Z,6.10
2017-09-08T05:21:20.484Z,5.33
2017-09-08T05:23:46.460Z,6.27
2017-09-08T05:26:16.264Z,6.20
2017-09-08T05:28:42.220Z,6.43
2017-09-08T05:31:08.170Z,6.27
2017-09-08T05:33:34.176Z,5.63
2017-09-08T05:36:00.174Z,6.90
2017-09-08T05:38:26.121Z,6.87
2017-09-08T05:40:52.113Z,6.57
2017-09-08T05:43:18.049Z,7.30
2017-09-08T05:45:43.997Z,9.10
2017-09-08T05:48:10.716Z,9.67
2017-09-08T05:50:36.671Z,7.90
2017-09-08T05:53:03.393Z,6.03
2017-09-08T05:55:30.121Z,6.13
2017-09-08T05:57:56.834Z,6.30
2017-09-08T06:00:23.585Z,5.93
2017-09-08T06:02:49.528Z,5.63
2017-09-08T06:05:15.478Z,4.77
2017-09-08T06:07:42.205Z,5.83
2017-09-08T06:10:08.901Z,5.93
2017-09-08T06:12:34.894Z,5.77
2017-09-08T06:15:00.910Z,6.47
2017-09-08T06:17:26.997Z,6.50
2017-09-08T06:19:52.945Z,5.70
2017-09-08T06:22:18.934Z,5.67
2017-09-08T06:24:45.626Z,5.80
2017-09-08T06:27:11.588Z,5.87
2017-09-08T06:29:37.665Z,6.13
2017-09-08T06:32:03.649Z,5.37
2017-09-08T06:34:29.633Z,5.60
2017-09-08T06:36:56.357Z,5.57
2017-09-08T06:39:23.121Z,5.80
2017-09-08T06:41:49.098Z,5.70
2017-09-08T06:44:15.042Z,5.60
2017-09-08T06:46:41.113Z,6.13
2017-09-08T06:49:07.197Z,5.40
2017-09-08T06:51:33.189Z,5.60
2017-09-08T06:53:59.181Z,5.77
2017-09-08T06:56:25.173Z,5.40
2017-09-08T06:58:51.150Z,6.17
2017-09-08T07:01:17.121Z,5.53
2017-09-08T07:03:43.136Z,6.90
2017-09-08T07:06:09.922Z,5.70
2017-09-08T07:08:35.913Z,5.83
2017-09-08T07:11:01.862Z,4.87
2017-09-08T07:13:27.857Z,6.80
2017-09-08T07:15:53.822Z,5.33
2017-09-08T07:18:19.778Z,6.50
2017-09-08T07:20:45.772Z,5.50
2017-09-08T07:23:11.738Z,5.50
2017-09-08T07:25:37.718Z,6.50
2017-09-08T07:28:03.828Z,6.00
2017-09-08T07:30:29.773Z,6.37
2017-09-08T07:32:55.717Z,5.97
2017-09-08T07:35:21.709Z,6.43
2017-09-08T07:37:48.401Z,6.47
2017-09-08T07:40:14.352Z,6.07
2017-09-08T07:42:41.211Z,6.03
2017-09-08T07:45:07.201Z,6.00
2017-09-08T07:47:33.152Z,5.67
2017-09-08T07:49:59.881Z,7.03
2017-09-08T07:52:25.865Z,6.13
2017-09-08T07:54:51.813Z,7.03
2017-09-08T07:57:17.814Z,6.90
2017-09-08T07:59:43.808Z,6.30
2017-09-08T08:02:09.787Z,5.17
2017-09-08T08:04:35.849Z,5.00
2017-09-08T08:07:01.794Z,5.90
2017-09-08T08:09:27.737Z,5.17
2017-09-08T08:11:53.717Z,5.33
2017-09-08T08:14:19.661Z,5.53
2017-09-08T08:16:45.636Z,5.53
2017-09-08T08:19:11.654Z,6.13
2017-09-08T08:21:37.645Z,4.73
2017-09-08T08:24:03.584Z,4.67
2017-09-08T08:26:29.653Z,5.70
2017-09-08T08:28:56.364Z,5.40
2017-09-08T08:31:23.040Z,4.93
2017-09-08T08:33:49.026Z,5.37
2017-09-08T08:36:14.973Z,5.63
2017-09-08T08:38:40.948Z,5.07
2017-09-08T08:41:06.920Z,5.77
2017-09-08T08:43:33.617Z,5.63
2017-09-08T08:45:59.599Z,5.20
2017-09-08T08:48:25.573Z,4.70
2017-09-08T08:50:51.564Z,4.50
2017-09-08T08:53:17.545Z,5.80
2017-09-08T08:55:43.489Z,5.23
2017-09-08T08:58:10.250Z,6.40
2017-09-08T09:00:36.504Z,5.70
2017-09-08T09:03:02.444Z,6.30
2017-09-08T09:05:28.391Z,4.37
2017-09-08T09:07:54.404Z,6.00
2017-09-08T09:10:20.340Z,5.23
2017-09-08T09:12:46.294Z,6.00
2017-09-08T09:15:12.417Z,5.33
2017-09-08T09:17:38.398Z,5.60
2017-09-08T09:20:05.090Z,5.80
2017-09-08T09:22:31.090Z,4.90
2017-09-08T09:24:57.042Z,5.27
2017-09-08T09:27:22.989Z,5.37
2017-09-08T09:29:49.008Z,5.77
2017-09-08T09:32:14.961Z,4.63
2017-09-08T09:34:41.687Z,5.43
2017-09-08T09:37:07.684Z,6.07
2017-09-08T09:39:33.628Z,6.40
2017-09-08T09:41:59.576Z,5.47
2017-09-08T09:44:25.553Z,5.50
2017-09-08T09:46:51.577Z,5.27
2017-09-08T09:49:17.566Z,4.60
2017-09-08T09:51:43.517Z,5.07
2017-09-08T09:54:09.707Z,5.33
2017-09-08T09:56:35.693Z,5.53
2017-09-08T09:59:01.680Z,5.53
2017-09-08T10:01:27.693Z,5.00
2017-09-08T10:03:53.681Z,5.10
2017-09-08T10:06:20.388Z,5.40
2017-09-08T10:08:46.374Z,4.33
2017-09-08T10:11:12.357Z,6.87
2017-09-08T10:13:38.357Z,5.40
2017-09-08T10:16:04.309Z,6.30
2017-09-08T10:18:30.325Z,5.53
2017-09-08T10:20:56.284Z,5.97
2017-09-08T10:23:22.220Z,5.70
2017-09-08T10:25:48.222Z,6.20
2017-09-08T10:28:14.181Z,5.77
2017-09-08T10:30:40.904Z,5.07
2017-09-08T10:33:07.658Z,5.20
2017-09-08T10:35:33.637Z,5.10
2017-09-08T10:37:59.613Z,5.40
2017-09-08T10:40:26.440Z,6.43
2017-09-08T10:42:52.399Z,5.20
2017-09-08T10:45:19.092Z,6.47
2017-09-08T10:47:45.281Z,5.97
2017-09-08T10:50:11.256Z,5.43
2017-09-08T10:52:37.276Z,5.20
2017-09-08T10:55:03.228Z,5.60
2017-09-08T10:57:29.225Z,5.23
2017-09-08T10:59:55.209Z,5.77
2017-09-08T11:02:21.184Z,5.33
2017-09-08T11:04:47.912Z,5.60
2017-09-08T11:07:13.917Z,5.50
2017-09-08T11:09:40.674Z,5.03
2017-09-08T11:12:06.621Z,5.57
2017-09-08T11:14:32.575Z,5.47
2017-09-08T11:16:58.552Z,6.10
2017-09-08T11:19:24.519Z,5.60
2017-09-08T11:21:50.527Z,6.00
2017-09-08T11:24:16.461Z,6.20
2017-09-08T11:26:42.408Z,6.13
2017-09-08T11:29:08.670Z,6.40
2017-09-08T11:31:34.608Z,5.77
2017-09-08T11:37:06.224Z,5.57
2017-09-08T11:39:35.456Z,5.00
2017-09-08T11:42:01.421Z,5.50
2017-09-08T11:44:27.368Z,6.00
2017-09-08T11:46:54.120Z,5.93
2017-09-08T11:49:20.065Z,5.43
2017-09-08T11:51:46.058Z,5.90
2017-09-08T11:54:12.049Z,5.70
2017-09-08T11:56:38.013Z,5.97
2017-09-08T11:59:04.108Z,5.50
2017-09-08T12:01:30.122Z,5.77
2017-09-08T12:03:56.100Z,6.20
2017-09-08T12:06:22.040Z,6.00
2017-09-08T12:08:48.021Z,5.07
2017-09-08T12:11:14.004Z,5.27
2017-09-08T12:13:39.957Z,4.93
2017-09-08T12:16:06.038Z,5.10
2017-09-08T12:18:31.996Z,4.20
2017-09-08T12:20:57.953Z,5.00
2017-09-08T12:23:23.943Z,5.13
2017-09-08T12:25:49.942Z,5.03
2017-09-08T12:28:16.649Z,6.30
2017-09-08T12:30:43.336Z,4.60
2017-09-08T12:33:09.426Z,4.93
2017-09-08T12:35:35.390Z,5.00
2017-09-08T12:38:02.145Z,5.40
2017-09-08T12:40:28.124Z,5.60
2017-09-08T12:42:54.862Z,5.47
2017-09-08T12:45:20.849Z,5.07
2017-09-08T12:47:46.845Z,4.87
2017-09-08T12:50:12.792Z,4.87
2017-09-08T12:52:39.555Z,5.57
2017-09-08T12:55:05.578Z,6.30
2017-09-08T12:57:31.535Z,5.73
2017-09-08T12:59:58.275Z,5.80
2017-09-08T13:02:24.238Z,6.17
2017-09-08T13:04:50.235Z,5.03
2017-09-08T13:07:16.190Z,5.67
2017-09-08T13:09:42.880Z,5.30
2017-09-08T13:12:08.899Z,5.13
2017-09-08T13:14:34.885Z,5.50
2017-09-08T13:17:00.828Z,5.77
2017-09-08T13:19:27.524Z,5.50
2017-09-08T13:21:54.001Z,5.20
2017-09-08T13:24:19.949Z,5.60
2017-09-08T13:26:45.944Z,6.03
2017-09-08T13:29:11.928Z,5.83
2017-09-08T13:31:37.949Z,5.23
2017-09-08T13:34:03.901Z,5.43
2017-09-08T13:36:29.840Z,5.70
2017-09-08T13:38:55.853Z,6.00
2017-09-08T13:41:21.805Z,6.13
2017-09-08T13:43:47.756Z,5.83
2017-09-08T13:46:14.618Z,6.13
2017-09-08T13:48:40.598Z,5.93
2017-09-08T13:51:06.613Z,6.10
2017-09-08T13:53:32.618Z,6.07
2017-09-08T13:55:58.569Z,5.03
2017-09-08T13:58:24.529Z,6.30
2017-09-08T14:00:50.789Z,5.67
2017-09-08T14:03:16.761Z,6.60
2017-09-08T14:05:42.729Z,6.60
2017-09-08T14:08:08.749Z,5.40
2017-09-08T14:10:34.704Z,5.40
2017-09-08T14:13:00.729Z,5.80
2017-09-08T14:15:26.681Z,5.43
2017-09-08T14:17:53.378Z,5.37
2017-09-08T14:20:19.473Z,5.10
2017-09-08T14:22:45.416Z,5.90
2017-09-08T14:25:11.437Z,5.20
2017-09-08T14:27:38.160Z,5.17
2017-09-08T14:30:04.840Z,5.83
2017-09-08T14:32:30.826Z,4.93
2017-09-08T14:34:56.790Z,6.00
2017-09-08T14:37:22.748Z,5.90
2017-09-08T14:39:48.833Z,6.23
2017-09-08T14:42:14.796Z,5.70
2017-09-08T14:44:40.797Z,5.60
2017-09-08T14:47:06.933Z,6.10
2017-09-08T14:49:32.880Z,5.40
2017-09-08T14:51:58.857Z,5.90
2017-09-08T14:54:24.801Z,5.67
2017-09-08T14:56:51.520Z,5.73
2017-09-08T14:59:17.493Z,6.40
2017-09-08T15:01:43.469Z,5.30
2017-09-08T15:04:09.848Z,6.07
2017-09-08T15:06:35.877Z,6.13
2017-09-08T15:09:01.845Z,6.10
2017-09-08T15:11:27.848Z,6.23
2017-09-08T15:13:53.789Z,5.60
2017-09-08T15:16:19.768Z,6.50
2017-09-08T15:18:45.801Z,6.20
2017-09-08T15:21:11.761Z,6.40
2017-09-08T15:23:37.729Z,4.97
2017-09-08T15:26:03.713Z,6.10
2017-09-08T15:28:29.668Z,6.83
2017-09-08T15:30:55.684Z,6.33
2017-09-08T15:33:21.638Z,6.10
2017-09-08T15:35:47.576Z,5.83
2017-09-08T15:38:14.304Z,6.87
2017-09-08T15:40:41.021Z,5.70
2017-09-08T15:43:07.784Z,6.00
2017-09-08T15:45:33.729Z,6.43
2017-09-08T15:47:59.717Z,6.80
2017-09-08T15:50:25.734Z,5.97
2017-09-08T15:52:51.692Z,6.60
2017-09-08T15:55:17.680Z,5.57
2017-09-08T15:57:43.617Z,6.00
2017-09-08T16:00:09.672Z,5.87
2017-09-08T16:02:35.721Z,5.37
2017-09-08T16:05:02.410Z,5.67
2017-09-08T16:07:28.388Z,5.57
2017-09-08T16:09:54.348Z,5.47
2017-09-08T16:12:20.325Z,6.20
2017-09-08T16:14:46.308Z,5.77
2017-09-08T16:17:12.297Z,5.80
2017-09-08T16:19:39.072Z,5.80
2017-09-08T16:22:05.141Z,5.30
2017-09-08T16:24:31.100Z,5.60
2017-09-08T16:26:57.110Z,5.80
2017-09-08T16:29:23.075Z,6.10
2017-09-08T16:31:49.030Z,5.77
2017-09-08T16:34:15.021Z,5.10
2017-09-08T16:36:40.978Z,5.73
2017-09-08T16:39:07.729Z,5.00
2017-09-08T16:41:33.708Z,4.90
2017-09-08T16:44:00.388Z,5.17
2017-09-08T16:46:26.411Z,5.67
2017-09-08T16:48:52.405Z,4.77
2017-09-08T16:51:18.392Z,5.00
2017-09-08T16:53:44.805Z,5.27
2017-09-08T16:56:10.881Z,5.23
2017-09-08T16:58:36.898Z,5.17
2017-09-08T17:01:03.629Z,5.40
2017-09-08T17:03:29.598Z,5.73
2017-09-08T17:05:55.594Z,5.50
2017-09-08T17:08:21.613Z,5.33
2017-09-08T17:10:47.637Z,4.93
2017-09-08T17:13:13.627Z,5.90
2017-09-08T17:15:39.633Z,4.80
2017-09-08T17:18:05.644Z,5.80
2017-09-08T17:20:31.593Z,5.37
2017-09-08T17:22:58.369Z,5.03
2017-09-08T17:25:24.347Z,5.83
2017-09-08T17:27:50.314Z,5.77
2017-09-08T17:30:16.308Z,6.80
2017-09-08T17:32:42.276Z,5.70
2017-09-08T17:35:08.321Z,5.33
2017-09-08T17:37:34.383Z,4.97
2017-09-08T17:40:01.112Z,5.93
2017-09-08T17:42:27.846Z,5.30
2017-09-08T17:44:53.875Z,5.73
2017-09-08T17:47:19.877Z,5.07
2017-09-08T17:49:45.836Z,6.47
2017-09-08T17:52:11.827Z,5.80
2017-09-08T17:54:37.881Z,5.23
2017-09-08T17:57:03.846Z,5.90
2017-09-08T17:59:29.848Z,5.57
2017-09-08T18:01:55.860Z,5.87
2017-09-08T18:04:21.815Z,5.30
2017-09-08T18:06:48.549Z,5.60
2017-09-08T18:09:14.506Z,5.50
2017-09-08T18:11:40.549Z,6.00
2017-09-08T18:14:07.414Z,6.87
2017-09-08T18:16:33.365Z,7.57
2017-09-08T18:18:59.352Z,6.10
2017-09-08T18:21:25.314Z,6.93
2017-09-08T18:23:51.366Z,6.00
2017-09-08T18:26:17.312Z,6.70
2017-09-08T18:28:45.097Z,6.53
2017-09-08T18:31:11.168Z,7.20
2017-09-08T18:33:37.205Z,6.53
2017-09-08T18:36:03.185Z,6.40
2017-09-08T18:38:29.185Z,6.00
2017-09-08T18:40:55.196Z,6.70
2017-09-08T18:43:21.162Z,6.57
2017-09-08T18:45:47.158Z,6.03
2017-09-08T18:48:13.117Z,7.83
2017-09-08T18:50:39.201Z,7.50
2017-09-08T18:53:05.209Z,6.43
2017-09-08T18:55:31.205Z,6.97
2017-09-08T18:57:57.213Z,6.40
2017-09-08T19:00:23.174Z,6.17
2017-09-08T19:02:49.202Z,6.30
2017-09-08T19:05:15.242Z,6.57
2017-09-08T19:07:41.297Z,6.07
2017-09-08T19:10:07.420Z,6.93
2017-09-08T19:12:34.189Z,8.77
2017-09-08T19:15:00.189Z,5.97
2017-09-08T19:17:26.141Z,7.30
2017-09-08T19:19:52.148Z,7.40
2017-09-08T19:22:18.165Z,7.00
2017-09-08T19:24:44.144Z,6.47
2017-09-08T19:27:10.191Z,6.40
2017-09-08T19:29:36.275Z,6.50
2017-09-08T19:32:02.238Z,6.80
2017-09-08T19:34:28.238Z,6.90
2017-09-08T19:36:54.938Z,7.43
2017-09-08T19:39:20.941Z,6.20
2017-09-08T19:41:46.944Z,7.53
2017-09-08T19:44:12.950Z,7.37
2017-09-08T19:46:38.962Z,7.90
2017-09-08T19:49:04.957Z,8.03
2017-09-08T19:51:30.961Z,7.77
2017-09-08T19:53:58.018Z,7.47
2017-09-08T19:56:23.973Z,7.10
2017-09-08T19:58:49.956Z,7.77
2017-09-08T20:01:15.900Z,7.20
2017-09-08T20:03:41.953Z,8.30
2017-09-08T20:06:08.037Z,8.33
2017-09-08T20:08:33.987Z,10.40
2017-09-08T20:10:59.998Z,10.30
2017-09-08T20:13:26.008Z,10.93
2017-09-08T20:15:51.977Z,11.00
2017-09-08T20:18:17.972Z,10.77
2017-09-08T20:20:43.934Z,10.90
2017-09-08T20:23:09.989Z,12.27
2017-09-08T20:25:36.058Z,11.87
2017-09-08T20:28:02.049Z,11.50
2017-09-08T20:30:28.017Z,9.47
2017-09-08T20:32:54.029Z,9.50
2017-09-08T20:35:19.972Z,10.10
2017-09-08T20:37:45.973Z,9.93
2017-09-08T20:40:12.037Z,10.77
2017-09-08T20:42:38.167Z,9.80
2017-09-08T20:45:04.160Z,9.77
2017-09-08T20:47:30.220Z,8.30
2017-09-08T20:49:56.185Z,8.57
2017-09-08T20:52:22.182Z,8.60
2017-09-08T20:54:48.168Z,8.50
2017-09-08T20:57:14.936Z,10.30
2017-09-08T20:59:40.955Z,10.23
2017-09-08T21:02:06.967Z,9.73
2017-09-08T21:04:32.981Z,9.33
2017-09-08T21:06:58.957Z,9.83
2017-09-08T21:09:24.933Z,11.30
2017-09-08T21:11:51.037Z,10.10
2017-09-08T21:14:17.048Z,9.07
2017-09-08T21:16:43.041Z,9.43
2017-09-08T21:19:09.021Z,9.47
2017-09-08T21:21:35.046Z,9.20
2017-09-08T21:24:00.988Z,9.23
2017-09-08T21:26:26.961Z,8.67
2017-09-08T21:28:52.972Z,8.97
2017-09-08T21:31:18.930Z,9.30
2017-09-08T21:33:45.664Z,9.23
2017-09-08T21:36:12.372Z,9.40
2017-09-08T21:38:38.382Z,8.50
2017-09-08T21:41:04.361Z,8.90
2017-09-08T21:43:30.313Z,9.10
2017-09-08T21:45:57.218Z,8.47
2017-09-08T21:48:23.178Z,11.67
2017-09-08T21:50:49.145Z,8.37
2017-09-08T21:53:15.150Z,8.90
2017-09-08T21:55:41.296Z,8.50
2017-09-08T21:58:07.369Z,11.40
2017-09-08T22:00:33.393Z,8.83
2017-09-08T22:03:00.162Z,8.60
2017-09-08T22:05:26.186Z,9.20
2017-09-08T22:07:52.157Z,8.53
2017-09-08T22:10:18.860Z,8.43
2017-09-08T22:12:44.861Z,8.33
2017-09-08T22:15:10.847Z,8.57
2017-09-08T22:17:36.855Z,9.73
2017-09-08T22:20:02.854Z,7.60
2017-09-08T22:22:28.821Z,9.87
2017-09-08T22:24:55.572Z,9.67
2017-09-08T22:27:21.516Z,8.80
2017-09-08T22:29:47.474Z,8.77
2017-09-08T22:32:13.472Z,9.43
2017-09-08T22:34:40.197Z,8.57
2017-09-08T22:37:06.937Z,9.77
2017-09-08T22:39:32.924Z,12.83
2017-09-08T22:41:59.617Z,12.20
2017-09-08T22:44:25.629Z,11.90
2017-09-08T22:46:51.628Z,11.47
2017-09-08T22:49:17.577Z,10.90
2017-09-08T22:51:44.269Z,13.10
2017-09-08T22:54:10.270Z,10.93
2017-09-08T22:56:36.255Z,8.70
2017-09-08T22:59:02.240Z,9.17
2017-09-08T23:01:28.196Z,9.00
2017-09-08T23:03:54.209Z,11.00
2017-09-08T23:06:20.167Z,11.83
2017-09-08T23:08:46.121Z,9.37
2017-09-08T23:11:12.130Z,10.30
2017-09-08T23:13:38.125Z,8.77
2017-09-08T23:16:04.112Z,9.20
2017-09-08T23:18:30.148Z,9.30
2017-09-08T23:20:56.133Z,8.23
2017-09-08T23:23:22.093Z,7.70
2017-09-08T23:25:48.072Z,8.33
2017-09-08T23:28:14.012Z,8.63
2017-09-08T23:30:40.012Z,8.47
2017-09-08T23:33:05.997Z,7.80
2017-09-08T23:35:31.993Z,8.40
2017-09-08T23:37:57.973Z,7.80
2017-09-08T23:40:24.729Z,7.70
2017-09-08T23:42:50.717Z,8.03
2017-09-08T23:45:16.665Z,7.43
2017-09-08T23:47:42.630Z,8.20
2017-09-08T23:50:08.653Z,7.60
2017-09-08T23:52:34.600Z,9.60
2017-09-08T23:55:00.601Z,7.63
2017-09-08T23:57:26.588Z,7.40
2017-09-08T23:59:52.550Z,8.27
